sensor_id;sensor_type;location;lat;lon;timestamp;pressure;altitude;pressure_sealevel;temperature;humidity
16834;BME280;8533;48.426;10.868;2022-08-21T00:00:27;96400.77;;;15.88;100.00
16834;BME280;8533;48.426;10.868;2022-08-21T00:03:00;96396.03;;;15.85;100.00
16834;BME280;8533;48.426;10.868;2022-08-21T00:05:29;96398.93;;;15.84;100.00
16834;BME280;8533;48.426;10.868;2022-08-21T00:07:57;96399.20;;;15.82;100.00
16834;BME280;8533;48.426;10.868;2022-08-21T00:10:25;96391.58;;;15.81;100.00
16834;BME280;8533;48.426;10.868;2022-08-21T00:12:53;96391.02;;;15.81;100.00
16834;BME280;8533;48.426;10.868;2022-08-21T00:15:23;96397.61;;;15.81;100.00
16834;BME280;8533;48.426;10.868;2022-08-21T00:17:53;96392.64;;;15.80;100.00
16834;BME280;8533;48.426;10.868;2022-08-21T00:20:21;96395.54;;;15.78;100.00
16834;BME280;8533;48.426;10.868;2022-08-21T00:22:49;96392.64;;;15.77;100.00
16834;BME280;8533;48.426;10.868;2022-08-21T00:25:18;96387.09;;;15.76;100.00
16834;BME280;8533;48.426;10.868;2022-08-21T00:27:46;96388.42;;;15.76;100.00
16834;BME280;8533;48.426;10.868;2022-08-21T00:30:16;96393.95;;;15.77;100.00
16834;BME280;8533;48.426;10.868;2022-08-21T00:32:44;96384.73;;;15.75;100.00
16834;BME280;8533;48.426;10.868;2022-08-21T00:35:14;96385.52;;;15.75;100.00
16834;BME280;8533;48.426;10.868;2022-08-21T00:37:42;96382.13;;;15.72;100.00
16834;BME280;8533;48.426;10.868;2022-08-21T00:40:13;96387.66;;;15.71;100.00
16834;BME280;8533;48.426;10.868;2022-08-21T00:42:41;96381.06;;;15.71;100.00
16834;BME280;8533;48.426;10.868;2022-08-21T00:45:11;96381.59;;;15.68;100.00
16834;BME280;8533;48.426;10.868;2022-08-21T00:47:39;96382.92;;;15.65;100.00
16834;BME280;8533;48.426;10.868;2022-08-21T00:50:09;96385.06;;;15.63;100.00
16834;BME280;8533;48.426;10.868;2022-08-21T00:52:38;96382.69;;;15.61;100.00
16834;BME280;8533;48.426;10.868;2022-08-21T00:55:08;96384.53;;;15.61;100.00
16834;BME280;8533;48.426;10.868;2022-08-21T00:57:40;96380.84;;;15.59;100.00
16834;BME280;8533;48.426;10.868;2022-08-21T01:00:10;96379.00;;;15.60;100.00
16834;BME280;8533;48.426;10.868;2022-08-21T01:02:37;96376.89;;;15.57;100.00
16834;BME280;8533;48.426;10.868;2022-08-21T01:05:06;96375.86;;;15.55;100.00
16834;BME280;8533;48.426;10.868;2022-08-21T01:07:33;96374.02;;;15.53;100.00
16834;BME280;8533;48.426;10.868;2022-08-21T01:10:02;96377.16;;;15.53;100.00
16834;BME280;8533;48.426;10.868;2022-08-21T01:12:30;96369.50;;;15.51;100.00
16834;BME280;8533;48.426;10.868;2022-08-21T01:14:58;96370.56;;;15.50;100.00
16834;BME280;8533;48.426;10.868;2022-08-21T01:17:27;96380.34;;;15.47;100.00
16834;BME280;8533;48.426;10.868;2022-08-21T01:20:02;96374.02;;;15.46;100.00
16834;BME280;8533;48.426;10.868;2022-08-21T01:22:25;96370.86;;;15.44;100.00
16834;BME280;8533;48.426;10.868;2022-08-21T01:24:53;96375.60;;;15.44;100.00
16834;BME280;8533;48.426;10.868;2022-08-21T01:27:20;96368.48;;;15.45;100.00
16834;BME280;8533;48.426;10.868;2022-08-21T01:30:02;96372.17;;;15.41;100.00
16834;BME280;8533;48.426;10.868;2022-08-21T01:32:27;96372.17;;;15.41;100.00
16834;BME280;8533;48.426;10.868;2022-08-21T01:34:54;96363.51;;;15.36;100.00
16834;BME280;8533;48.426;10.868;2022-08-21T01:37:22;96370.89;;;15.36;100.00
16834;BME280;8533;48.426;10.868;2022-08-21T01:39:49;96361.13;;;15.34;100.00
16834;BME280;8533;48.426;10.868;2022-08-21T01:42:16;96367.22;;;15.32;100.00
16834;BME280;8533;48.426;10.868;2022-08-21T01:44:44;96366.96;;;15.28;100.00
16834;BME280;8533;48.426;10.868;2022-08-21T01:47:14;96367.48;;;15.28;100.00
16834;BME280;8533;48.426;10.868;2022-08-21T01:49:41;96363.80;;;15.26;100.00
16834;BME280;8533;48.426;10.868;2022-08-21T01:52:10;96361.95;;;15.24;100.00
16834;BME280;8533;48.426;10.868;2022-08-21T01:54:38;96364.35;;;15.23;100.00
16834;BME280;8533;48.426;10.868;2022-08-21T01:57:06;96358.55;;;15.21;100.00
16834;BME280;8533;48.426;10.868;2022-08-21T01:59:35;96357.77;;;15.21;100.00
16834;BME280;8533;48.426;10.868;2022-08-21T02:02:03;96352.48;;;15.18;100.00
16834;BME280;8533;48.426;10.868;2022-08-21T02:04:32;96352.52;;;15.16;100.00
16834;BME280;8533;48.426;10.868;2022-08-21T02:07:00;96347.51;;;15.14;100.00
16834;BME280;8533;48.426;10.868;2022-08-21T02:09:28;96354.09;;;15.12;100.00
16834;BME280;8533;48.426;10.868;2022-08-21T02:11:56;96343.55;;;15.12;100.00
16834;BME280;8533;48.426;10.868;2022-08-21T02:14:23;96350.93;;;15.10;100.00
16834;BME280;8533;48.426;10.868;2022-08-21T02:16:51;96348.83;;;15.09;100.00
16834;BME280;8533;48.426;10.868;2022-08-21T02:19:18;96340.39;;;15.10;100.00
16834;BME280;8533;48.426;10.868;2022-08-21T02:21:45;96342.77;;;15.09;100.00
16834;BME280;8533;48.426;10.868;2022-08-21T02:24:13;96350.43;;;15.08;100.00
16834;BME280;8533;48.426;10.868;2022-08-21T02:26:40;96349.91;;;15.06;100.00
16834;BME280;8533;48.426;10.868;2022-08-21T02:29:08;96351.22;;;15.06;100.00
16834;BME280;8533;48.426;10.868;2022-08-21T02:31:36;96341.47;;;15.04;100.00
16834;BME280;8533;48.426;10.868;2022-08-21T02:34:03;96342.52;;;15.00;100.00
16834;BME280;8533;48.426;10.868;2022-08-21T02:36:31;96345.97;;;14.96;100.00
16834;BME280;8533;48.426;10.868;2022-08-21T02:38:58;96344.94;;;14.89;100.00
16834;BME280;8533;48.426;10.868;2022-08-21T02:41:26;96335.71;;;14.86;100.00
16834;BME280;8533;48.426;10.868;2022-08-21T02:43:53;96339.40;;;14.85;100.00
16834;BME280;8533;48.426;10.868;2022-08-21T02:46:21;96335.97;;;14.85;100.00
16834;BME280;8533;48.426;10.868;2022-08-21T02:48:49;96342.03;;;14.85;100.00
16834;BME280;8533;48.426;10.868;2022-08-21T02:51:18;96338.11;;;14.83;100.00
16834;BME280;8533;48.426;10.868;2022-08-21T02:53:47;96347.59;;;14.81;100.00
16834;BME280;8533;48.426;10.868;2022-08-21T02:56:17;96350.22;;;14.81;100.00
16834;BME280;8533;48.426;10.868;2022-08-21T02:58:48;96344.69;;;14.83;100.00
16834;BME280;8533;48.426;10.868;2022-08-21T03:01:17;96347.33;;;14.83;100.00
16834;BME280;8533;48.426;10.868;2022-08-21T03:03:47;96340.22;;;14.83;100.00
16834;BME280;8533;48.426;10.868;2022-08-21T03:06:19;96339.42;;;14.83;100.00
16834;BME280;8533;48.426;10.868;2022-08-21T03:08:48;96336.79;;;14.83;100.00
16834;BME280;8533;48.426;10.868;2022-08-21T03:11:15;96344.69;;;14.83;100.00
16834;BME280;8533;48.426;10.868;2022-08-21T03:13:43;96347.33;;;14.83;100.00
16834;BME280;8533;48.426;10.868;2022-08-21T03:16:11;96344.69;;;14.83;100.00
16834;BME280;8533;48.426;10.868;2022-08-21T03:18:38;96346.27;;;14.81;100.00
16834;BME280;8533;48.426;10.868;2022-08-21T03:21:06;96339.94;;;14.77;100.00
16834;BME280;8533;48.426;10.868;2022-08-21T03:23:34;96344.15;;;14.76;100.00
16834;BME280;8533;48.426;10.868;2022-08-21T03:26:01;96341.52;;;14.76;100.00
16834;BME280;8533;48.426;10.868;2022-08-21T03:28:29;96341.81;;;14.74;100.00
16834;BME280;8533;48.426;10.868;2022-08-21T03:30:56;96338.91;;;14.73;100.00
16834;BME280;8533;48.426;10.868;2022-08-21T03:33:24;96341.81;;;14.74;100.00
16834;BME280;8533;48.426;10.868;2022-08-21T03:36:00;96341.02;;;14.74;100.00
16834;BME280;8533;48.426;10.868;2022-08-21T03:38:28;96343.38;;;14.73;100.00
16834;BME280;8533;48.426;10.868;2022-08-21T03:40:56;96347.59;;;14.74;100.00
16834;BME280;8533;48.426;10.868;2022-08-21T03:43:23;96343.38;;;14.73;100.00
16834;BME280;8533;48.426;10.868;2022-08-21T03:45:51;96345.23;;;14.72;100.00
16834;BME280;8533;48.426;10.868;2022-08-21T03:48:19;96349.44;;;14.73;100.00
16834;BME280;8533;48.426;10.868;2022-08-21T03:50:47;96349.70;;;14.74;100.00
16834;BME280;8533;48.426;10.868;2022-08-21T03:53:16;96351.80;;;14.72;100.00
16834;BME280;8533;48.426;10.868;2022-08-21T03:55:46;96351.27;;;14.70;100.00
16834;BME280;8533;48.426;10.868;2022-08-21T03:58:16;96349.72;;;14.67;100.00
16834;BME280;8533;48.426;10.868;2022-08-21T04:00:46;96356.30;;;14.64;100.00
16834;BME280;8533;48.426;10.868;2022-08-21T04:03:14;96351.56;;;14.59;100.00
16834;BME280;8533;48.426;10.868;2022-08-21T04:05:42;96348.14;;;14.58;100.00
16834;BME280;8533;48.426;10.868;2022-08-21T04:08:12;96351.56;;;14.56;100.00
16834;BME280;8533;48.426;10.868;2022-08-21T04:10:41;96344.20;;;14.50;100.00
16834;BME280;8533;48.426;10.868;2022-08-21T04:13:10;96354.72;;;14.45;100.00
16834;BME280;8533;48.426;10.868;2022-08-21T04:15:37;96358.41;;;14.42;100.00
16834;BME280;8533;48.426;10.868;2022-08-21T04:18:05;96359.72;;;14.39;100.00
16834;BME280;8533;48.426;10.868;2022-08-21T04:20:33;96361.05;;;14.42;100.00
16834;BME280;8533;48.426;10.868;2022-08-21T04:23:01;96359.44;;;14.43;100.00
16834;BME280;8533;48.426;10.868;2022-08-21T04:25:29;96359.73;;;14.42;100.00
16834;BME280;8533;48.426;10.868;2022-08-21T04:27:57;96360.52;;;14.42;100.00
16834;BME280;8533;48.426;10.868;2022-08-21T04:30:25;96361.55;;;14.44;100.00
16834;BME280;8533;48.426;10.868;2022-08-21T04:32:52;96361.55;;;14.44;100.00
16834;BME280;8533;48.426;10.868;2022-08-21T04:35:22;96369.21;;;14.43;100.00
16834;BME280;8533;48.426;10.868;2022-08-21T04:37:49;96363.68;;;14.42;100.00
16834;BME280;8533;48.426;10.868;2022-08-21T04:40:18;96379.20;;;14.41;100.00
16834;BME280;8533;48.426;10.868;2022-08-21T04:42:48;96375.52;;;14.42;100.00
16834;BME280;8533;48.426;10.868;2022-08-21T04:45:28;96380.27;;;14.42;100.00
16834;BME280;8533;48.426;10.868;2022-08-21T04:47:57;96379.98;;;14.44;100.00
16834;BME280;8533;48.426;10.868;2022-08-21T04:50:29;96380.27;;;14.42;100.00
16834;BME280;8533;48.426;10.868;2022-08-21T04:52:58;96382.61;;;14.44;100.00
16834;BME280;8533;48.426;10.868;2022-08-21T04:55:25;96377.62;;;14.42;100.00
16834;BME280;8533;48.426;10.868;2022-08-21T04:57:55;96381.84;;;14.41;100.00
16834;BME280;8533;48.426;10.868;2022-08-21T05:00:24;96381.31;;;14.41;100.00
16834;BME280;8533;48.426;10.868;2022-08-21T05:02:53;96383.94;;;14.41;100.00
16834;BME280;8533;48.426;10.868;2022-08-21T05:05:23;96389.47;;;14.42;100.00
16834;BME280;8533;48.426;10.868;2022-08-21T05:07:51;96397.08;;;14.44;100.00
16834;BME280;8533;48.426;10.868;2022-08-21T05:10:20;96395.79;;;14.41;100.00
16834;BME280;8533;48.426;10.868;2022-08-21T05:12:48;96400.00;;;14.42;100.00
16834;BME280;8533;48.426;10.868;2022-08-21T05:15:16;96400.25;;;14.46;100.00
16834;BME280;8533;48.426;10.868;2022-08-21T05:17:43;96390.52;;;14.46;100.00
16834;BME280;8533;48.426;10.868;2022-08-21T05:20:12;96393.94;;;14.47;100.00
16834;BME280;8533;48.426;10.868;2022-08-21T05:22:40;96393.41;;;14.53;100.00
16834;BME280;8533;48.426;10.868;2022-08-21T05:25:09;96387.36;;;14.55;100.00
16834;BME280;8533;48.426;10.868;2022-08-21T05:27:38;96387.89;;;14.57;100.00
16834;BME280;8533;48.426;10.868;2022-08-21T05:30:07;96386.30;;;14.61;100.00
16834;BME280;8533;48.426;10.868;2022-08-21T05:32:35;96389.20;;;14.64;100.00
16834;BME280;8533;48.426;10.868;2022-08-21T05:35:07;96384.45;;;14.69;100.00
16834;BME280;8533;48.426;10.868;2022-08-21T05:37:35;96392.62;;;14.75;100.00
16834;BME280;8533;48.426;10.868;2022-08-21T05:40:03;96391.56;;;14.78;100.00
16834;BME280;8533;48.426;10.868;2022-08-21T05:42:33;96386.83;;;14.83;100.00
16834;BME280;8533;48.426;10.868;2022-08-21T05:45:00;96387.87;;;14.89;100.00
16834;BME280;8533;48.426;10.868;2022-08-21T05:47:27;96391.55;;;14.96;100.00
16834;BME280;8533;48.426;10.868;2022-08-21T05:49:55;96389.17;;;14.97;100.00
16834;BME280;8533;48.426;10.868;2022-08-21T05:52:22;96391.27;;;15.03;100.00
16834;BME280;8533;48.426;10.868;2022-08-21T05:54:50;96397.86;;;15.08;100.00
16834;BME280;8533;48.426;10.868;2022-08-21T05:57:20;96391.52;;;15.14;100.00
16834;BME280;8533;48.426;10.868;2022-08-21T05:59:48;96388.06;;;15.21;100.00
16834;BME280;8533;48.426;10.868;2022-08-21T06:02:18;96387.52;;;15.26;100.00
16834;BME280;8533;48.426;10.868;2022-08-21T06:04:47;96391.19;;;15.36;100.00
16834;BME280;8533;48.426;10.868;2022-08-21T06:07:15;96389.31;;;15.41;100.00
16834;BME280;8533;48.426;10.868;2022-08-21T06:09:42;96391.95;;;15.46;100.00
16834;BME280;8533;48.426;10.868;2022-08-21T06:12:12;96395.37;;;15.54;100.00
16834;BME280;8533;48.426;10.868;2022-08-21T06:14:41;96390.07;;;15.64;100.00
16834;BME280;8533;48.426;10.868;2022-08-21T06:17:10;96391.62;;;15.71;100.00
16834;BME280;8533;48.426;10.868;2022-08-21T06:19:38;96394.22;;;15.81;100.00
16834;BME280;8533;48.426;10.868;2022-08-21T06:22:06;96396.52;;;15.90;100.00
16834;BME280;8533;48.426;10.868;2022-08-21T06:24:34;96402.80;;;16.01;100.00
16834;BME280;8533;48.426;10.868;2022-08-21T06:27:08;96403.28;;;16.11;100.00
16834;BME280;8533;48.426;10.868;2022-08-21T06:29:36;96405.03;;;16.26;100.00
16834;BME280;8533;48.426;10.868;2022-08-21T06:32:04;96402.06;;;16.37;100.00
16834;BME280;8533;48.426;10.868;2022-08-21T06:34:38;96406.45;;;16.50;100.00
16834;BME280;8533;48.426;10.868;2022-08-21T06:37:06;96403.50;;;16.61;100.00
16834;BME280;8533;48.426;10.868;2022-08-21T06:39:34;96400.75;;;16.71;100.00
16834;BME280;8533;48.426;10.868;2022-08-21T06:42:01;96408.53;;;16.89;100.00
16834;BME280;8533;48.426;10.868;2022-08-21T06:44:30;96401.31;;;17.00;100.00
16834;BME280;8533;48.426;10.868;2022-08-21T06:46:58;96402.48;;;17.15;100.00
16834;BME280;8533;48.426;10.868;2022-08-21T06:49:25;96398.97;;;17.22;99.05
16834;BME280;8533;48.426;10.868;2022-08-21T06:51:52;96398.27;;;17.38;98.54
16834;BME280;8533;48.426;10.868;2022-08-21T06:54:20;96399.23;;;17.47;96.85
16834;BME280;8533;48.426;10.868;2022-08-21T06:56:47;96397.56;;;17.53;95.06
16834;BME280;8533;48.426;10.868;2022-08-21T06:59:14;96401.97;;;17.66;93.00
16834;BME280;8533;48.426;10.868;2022-08-21T07:01:42;96401.28;;;17.76;92.27
16834;BME280;8533;48.426;10.868;2022-08-21T07:04:09;96396.66;;;17.87;91.80
16834;BME280;8533;48.426;10.868;2022-08-21T07:06:37;96403.94;;;17.98;91.15
16834;BME280;8533;48.426;10.868;2022-08-21T07:09:04;96401.64;;;18.10;90.73
16834;BME280;8533;48.426;10.868;2022-08-21T07:11:32;96401.42;;;18.25;89.73
16834;BME280;8533;48.426;10.868;2022-08-21T07:14:01;96399.14;;;18.37;88.62
16834;BME280;8533;48.426;10.868;2022-08-21T07:16:29;96399.16;;;18.53;87.83
16834;BME280;8533;48.426;10.868;2022-08-21T07:18:56;96402.70;;;18.65;88.16
16834;BME280;8533;48.426;10.868;2022-08-21T07:21:24;96400.14;;;18.60;85.81
16834;BME280;8533;48.426;10.868;2022-08-21T07:23:52;96401.95;;;18.81;86.58
16834;BME280;8533;48.426;10.868;2022-08-21T07:26:21;96398.03;;;18.92;84.60
16834;BME280;8533;48.426;10.868;2022-08-21T07:28:49;96399.04;;;18.96;83.28
16834;BME280;8533;48.426;10.868;2022-08-21T07:31:19;96399.32;;;18.94;81.04
16834;BME280;8533;48.426;10.868;2022-08-21T07:33:47;96389.91;;;19.02;81.31
16834;BME280;8533;48.426;10.868;2022-08-21T07:36:15;96394.61;;;19.21;82.22
16834;BME280;8533;48.426;10.868;2022-08-21T07:38:43;96396.27;;;19.17;80.90
16834;BME280;8533;48.426;10.868;2022-08-21T07:41:15;96392.83;;;19.30;80.91
16834;BME280;8533;48.426;10.868;2022-08-21T07:43:43;96393.45;;;19.55;78.98
16834;BME280;8533;48.426;10.868;2022-08-21T07:46:11;96392.39;;;19.69;78.46
16834;BME280;8533;48.426;10.868;2022-08-21T07:48:39;96396.44;;;19.92;77.83
16834;BME280;8533;48.426;10.868;2022-08-21T07:51:09;96393.48;;;19.93;75.86
16834;BME280;8533;48.426;10.868;2022-08-21T07:53:37;96401.00;;;20.02;78.12
16834;BME280;8533;48.426;10.868;2022-08-21T07:56:06;96399.18;;;20.11;76.21
16834;BME280;8533;48.426;10.868;2022-08-21T07:58:34;96395.69;;;20.13;77.39
16834;BME280;8533;48.426;10.868;2022-08-21T08:01:02;96387.92;;;20.42;77.16
16834;BME280;8533;48.426;10.868;2022-08-21T08:03:29;96389.91;;;20.81;74.87
16834;BME280;8533;48.426;10.868;2022-08-21T08:05:57;96389.82;;;20.94;72.93
16834;BME280;8533;48.426;10.868;2022-08-21T08:08:24;96392.97;;;20.97;72.05
16834;BME280;8533;48.426;10.868;2022-08-21T08:10:53;96389.22;;;20.98;71.70
16834;BME280;8533;48.426;10.868;2022-08-21T08:13:20;96390.66;;;20.92;71.57
16834;BME280;8533;48.426;10.868;2022-08-21T08:15:48;96389.94;;;21.23;72.54
16834;BME280;8533;48.426;10.868;2022-08-21T08:18:16;96392.43;;;20.86;72.54
16834;BME280;8533;48.426;10.868;2022-08-21T08:20:43;96386.77;;;21.32;71.58
16834;BME280;8533;48.426;10.868;2022-08-21T08:23:12;96384.36;;;21.61;71.28
16834;BME280;8533;48.426;10.868;2022-08-21T08:25:41;96385.83;;;21.93;70.11
16834;BME280;8533;48.426;10.868;2022-08-21T08:28:08;96384.06;;;22.00;70.49
16834;BME280;8533;48.426;10.868;2022-08-21T08:30:36;96377.97;;;22.08;70.56
16834;BME280;8533;48.426;10.868;2022-08-21T08:33:03;96380.72;;;22.40;68.66
16834;BME280;8533;48.426;10.868;2022-08-21T08:35:30;96372.88;;;22.52;68.95
16834;BME280;8533;48.426;10.868;2022-08-21T08:37:58;96372.31;;;22.70;66.79
16834;BME280;8533;48.426;10.868;2022-08-21T08:40:30;96363.35;;;23.15;66.69
16834;BME280;8533;48.426;10.868;2022-08-21T08:42:56;96362.85;;;23.21;65.73
16834;BME280;8533;48.426;10.868;2022-08-21T08:45:24;96360.41;;;22.76;67.58
16834;BME280;8533;48.426;10.868;2022-08-21T08:47:58;96368.36;;;23.40;65.22
16834;BME280;8533;48.426;10.868;2022-08-21T08:50:40;96365.99;;;23.62;64.69
16834;BME280;8533;48.426;10.868;2022-08-21T08:55:52;96361.42;;;23.77;62.34
16834;BME280;8533;48.426;10.868;2022-08-21T08:58:26;96364.63;;;23.47;61.34
16834;BME280;8533;48.426;10.868;2022-08-21T09:00:54;96365.72;;;23.54;60.39
16834;BME280;8533;48.426;10.868;2022-08-21T09:03:24;96362.45;;;23.49;63.00
16834;BME280;8533;48.426;10.868;2022-08-21T09:06:08;96367.61;;;23.54;60.49
16834;BME280;8533;48.426;10.868;2022-08-21T09:11:34;96362.95;;;24.69;59.81
16834;BME280;8533;48.426;10.868;2022-08-21T09:16:55;96351.61;;;25.36;57.08
16834;BME280;8533;48.426;10.868;2022-08-21T09:19:53;96356.19;;;25.35;57.73
16834;BME280;8533;48.426;10.868;2022-08-21T09:25:29;96345.11;;;25.98;55.78
16834;BME280;8533;48.426;10.868;2022-08-21T09:27:56;96341.27;;;26.11;54.21
16834;BME280;8533;48.426;10.868;2022-08-21T09:30:29;96341.38;;;26.14;53.13
16834;BME280;8533;48.426;10.868;2022-08-21T09:32:57;96342.81;;;26.24;52.76
16834;BME280;8533;48.426;10.868;2022-08-21T09:35:26;96348.82;;;26.39;51.13
16834;BME280;8533;48.426;10.868;2022-08-21T09:38:02;96350.17;;;25.44;54.52
16834;BME280;8533;48.426;10.868;2022-08-21T09:40:41;96347.04;;;25.85;52.95
16834;BME280;8533;48.426;10.868;2022-08-21T09:45:39;96339.23;;;27.04;47.98
16834;BME280;8533;48.426;10.868;2022-08-21T09:48:22;96352.75;;;26.91;48.67
16834;BME280;8533;48.426;10.868;2022-08-21T09:50:51;96343.83;;;27.03;47.96
16834;BME280;8533;48.426;10.868;2022-08-21T09:53:30;96344.06;;;26.54;47.17
16834;BME280;8533;48.426;10.868;2022-08-21T09:56:02;96339.61;;;26.74;47.57
16834;BME280;8533;48.426;10.868;2022-08-21T09:58:51;96338.39;;;26.50;48.21
16834;BME280;8533;48.426;10.868;2022-08-21T10:01:24;96332.25;;;26.93;47.46
16834;BME280;8533;48.426;10.868;2022-08-21T10:04:06;96330.68;;;26.92;45.90
16834;BME280;8533;48.426;10.868;2022-08-21T10:06:33;96332.58;;;27.13;46.61
16834;BME280;8533;48.426;10.868;2022-08-21T10:09:09;96329.78;;;27.25;46.48
16834;BME280;8533;48.426;10.868;2022-08-21T10:11:36;96336.32;;;25.73;48.49
16834;BME280;8533;48.426;10.868;2022-08-21T10:14:24;96323.53;;;26.84;47.62
16834;BME280;8533;48.426;10.868;2022-08-21T10:17:21;96324.39;;;27.16;45.22
16834;BME280;8533;48.426;10.868;2022-08-21T10:20:03;96317.90;;;27.42;45.33
16834;BME280;8533;48.426;10.868;2022-08-21T10:25:37;96324.47;;;28.50;43.39
16834;BME280;8533;48.426;10.868;2022-08-21T10:28:11;96325.96;;;27.83;43.56
16834;BME280;8533;48.426;10.868;2022-08-21T10:30:48;96323.22;;;27.99;43.78
16834;BME280;8533;48.426;10.868;2022-08-21T10:35:52;96317.91;;;29.12;39.80
16834;BME280;8533;48.426;10.868;2022-08-21T10:38:27;96321.34;;;28.47;41.14
16834;BME280;8533;48.426;10.868;2022-08-21T10:41:02;96321.56;;;28.77;40.10
16834;BME280;8533;48.426;10.868;2022-08-21T10:48:49;96306.73;;;29.72;40.78
16834;BME280;8533;48.426;10.868;2022-08-21T10:56:39;96303.97;;;29.19;39.25
16834;BME280;8533;48.426;10.868;2022-08-21T11:01:44;96296.98;;;29.64;38.90
16834;BME280;8533;48.426;10.868;2022-08-21T11:04:43;96288.48;;;29.49;36.14
16834;BME280;8533;48.426;10.868;2022-08-21T11:07:10;96294.74;;;29.07;37.83
16834;BME280;8533;48.426;10.868;2022-08-21T11:09:33;96288.16;;;29.80;39.32
16834;BME280;8533;48.426;10.868;2022-08-21T11:12:06;96281.64;;;29.55;38.26
16834;BME280;8533;48.426;10.868;2022-08-21T11:15:02;96291.98;;;28.20;38.76
16834;BME280;8533;48.426;10.868;2022-08-21T11:17:36;96289.92;;;29.07;38.42
16834;BME280;8533;48.426;10.868;2022-08-21T11:20:05;96290.50;;;29.19;35.62
16834;BME280;8533;48.426;10.868;2022-08-21T11:22:47;96277.90;;;29.63;36.38
16834;BME280;8533;48.426;10.868;2022-08-21T11:25:33;96283.29;;;29.63;36.57
16834;BME280;8533;48.426;10.868;2022-08-21T11:28:15;96280.84;;;30.11;35.80
16834;BME280;8533;48.426;10.868;2022-08-21T11:36:34;96274.36;;;28.55;39.38
16834;BME280;8533;48.426;10.868;2022-08-21T11:39:22;96270.82;;;29.94;36.72
16834;BME280;8533;48.426;10.868;2022-08-21T11:44:30;96272.99;;;30.86;34.96
16834;BME280;8533;48.426;10.868;2022-08-21T11:47:58;96268.20;;;31.64;33.64
16834;BME280;8533;48.426;10.868;2022-08-21T11:49:47;96268.88;;;31.81;31.76
16834;BME280;8533;48.426;10.868;2022-08-21T11:52:21;96263.91;;;31.28;32.83
16834;BME280;8533;48.426;10.868;2022-08-21T11:54:58;96262.84;;;31.43;33.09
16834;BME280;8533;48.426;10.868;2022-08-21T11:57:27;96263.56;;;31.64;31.81
16834;BME280;8533;48.426;10.868;2022-08-21T12:00:00;96256.69;;;32.15;31.13
16834;BME280;8533;48.426;10.868;2022-08-21T12:02:29;96254.85;;;31.99;31.96
16834;BME280;8533;48.426;10.868;2022-08-21T12:04:59;96260.66;;;32.57;30.72
16834;BME280;8533;48.426;10.868;2022-08-21T12:07:34;96257.22;;;32.71;30.65
16834;BME280;8533;48.426;10.868;2022-08-21T12:10:02;96256.77;;;32.47;30.21
16834;BME280;8533;48.426;10.868;2022-08-21T12:12:33;96253.30;;;32.50;31.47
16834;BME280;8533;48.426;10.868;2022-08-21T12:15:23;96253.57;;;32.98;30.75
16834;BME280;8533;48.426;10.868;2022-08-21T12:18:01;96248.33;;;32.14;32.53
16834;BME280;8533;48.426;10.868;2022-08-21T12:20:42;96245.70;;;32.32;30.79
16834;BME280;8533;48.426;10.868;2022-08-21T12:23:12;96248.15;;;32.98;31.16
16834;BME280;8533;48.426;10.868;2022-08-21T12:25:39;96243.89;;;33.28;29.32
16834;BME280;8533;48.426;10.868;2022-08-21T12:28:09;96242.34;;;32.15;30.57
16834;BME280;8533;48.426;10.868;2022-08-21T12:30:45;96240.30;;;30.78;33.07
16834;BME280;8533;48.426;10.868;2022-08-21T12:35:48;96231.14;;;29.39;34.88
16834;BME280;8533;48.426;10.868;2022-08-21T12:38:18;96231.23;;;29.33;35.09
16834;BME280;8533;48.426;10.868;2022-08-21T12:41:01;96223.25;;;30.33;34.38
16834;BME280;8533;48.426;10.868;2022-08-21T12:43:43;96222.16;;;31.02;33.35
16834;BME280;8533;48.426;10.868;2022-08-21T12:46:17;96218.11;;;31.26;32.87
16834;BME280;8533;48.426;10.868;2022-08-21T12:48:56;96217.45;;;31.81;31.29
16834;BME280;8533;48.426;10.868;2022-08-21T12:51:26;96213.27;;;31.94;30.47
16834;BME280;8533;48.426;10.868;2022-08-21T12:53:56;96209.34;;;31.81;30.50
16834;BME280;8533;48.426;10.868;2022-08-21T12:56:27;96206.69;;;30.14;33.29
16834;BME280;8533;48.426;10.868;2022-08-21T12:58:59;96202.33;;;31.35;32.17
16834;BME280;8533;48.426;10.868;2022-08-21T13:01:28;96203.83;;;30.78;32.07
16834;BME280;8533;48.426;10.868;2022-08-21T13:03:59;96196.56;;;31.74;30.26
16834;BME280;8533;48.426;10.868;2022-08-21T13:06:29;96202.36;;;32.25;29.45
16834;BME280;8533;48.426;10.868;2022-08-21T13:09:06;96198.01;;;32.83;29.51
16834;BME280;8533;48.426;10.868;2022-08-21T13:11:28;96197.39;;;32.66;29.58
16834;BME280;8533;48.426;10.868;2022-08-21T13:13:55;96186.05;;;31.00;31.72
16834;BME280;8533;48.426;10.868;2022-08-21T13:16:26;96190.83;;;31.52;30.09
16834;BME280;8533;48.426;10.868;2022-08-21T13:19:03;96191.44;;;31.24;31.02
16834;BME280;8533;48.426;10.868;2022-08-21T13:21:31;96192.59;;;30.72;32.34
16834;BME280;8533;48.426;10.868;2022-08-21T13:26:43;96189.58;;;30.81;33.98
16834;BME280;8533;48.426;10.868;2022-08-21T13:29:14;96188.45;;;30.61;33.54
16834;BME280;8533;48.426;10.868;2022-08-21T13:31:53;96188.23;;;30.81;32.50
16834;BME280;8533;48.426;10.868;2022-08-21T13:34:12;96184.64;;;30.49;33.20
16834;BME280;8533;48.426;10.868;2022-08-21T13:36:41;96179.01;;;30.65;33.91
16834;BME280;8533;48.426;10.868;2022-08-21T13:39:11;96180.97;;;30.64;33.82
16834;BME280;8533;48.426;10.868;2022-08-21T13:41:43;96178.36;;;30.18;34.26
16834;BME280;8533;48.426;10.868;2022-08-21T13:44:19;96181.84;;;30.18;33.49
16834;BME280;8533;48.426;10.868;2022-08-21T13:46:49;96187.22;;;29.68;35.83
16834;BME280;8533;48.426;10.868;2022-08-21T13:49:19;96183.02;;;29.71;35.71
16834;BME280;8533;48.426;10.868;2022-08-21T13:51:48;96181.35;;;29.19;37.12
16834;BME280;8533;48.426;10.868;2022-08-21T13:54:35;96180.60;;;28.70;36.02
16834;BME280;8533;48.426;10.868;2022-08-21T13:57:03;96191.52;;;28.77;36.00